sensor_id;sensor_type;location;lat;lon;timestamp;P1;durP1;ratioP1;P2;durP2;ratioP2
44428;SDS011;30134;47.866;-4.222;2023-08-30T00:01:21;2.22;;;1.00;;
44428;SDS011;30134;47.866;-4.222;2023-08-30T00:03:47;2.42;;;1.35;;
44428;SDS011;30134;47.866;-4.222;2023-08-30T00:06:32;1.80;;;1.30;;
44428;SDS011;30134;47.866;-4.222;2023-08-30T00:08:58;1.60;;;1.10;;
44428;SDS011;30134;47.866;-4.222;2023-08-30T00:11:24;2.30;;;1.23;;
44428;SDS011;30134;47.866;-4.222;2023-08-30T00:13:50;2.28;;;1.30;;
44428;SDS011;30134;47.866;-4.222;2023-08-30T00:16:15;3.03;;;1.15;;
44428;SDS011;30134;47.866;-4.222;2023-08-30T00:18:42;3.50;;;1.33;;
44428;SDS011;30134;47.866;-4.222;2023-08-30T00:21:09;2.38;;;1.38;;
44428;SDS011;30134;47.866;-4.222;2023-08-30T00:26:39;2.28;;;1.20;;
44428;SDS011;30134;47.866;-4.222;2023-08-30T00:29:24;2.92;;;1.27;;
44428;SDS011;30134;47.866;-4.222;2023-08-30T00:31:50;2.70;;;1.50;;
44428;SDS011;30134;47.866;-4.222;2023-08-30T00:34:16;2.95;;;1.27;;
44428;SDS011;30134;47.866;-4.222;2023-08-30T00:37:00;4.35;;;1.23;;
44428;SDS011;30134;47.866;-4.222;2023-08-30T00:39:26;5.28;;;1.20;;
44428;SDS011;30134;47.866;-4.222;2023-08-30T00:41:52;2.00;;;1.10;;
44428;SDS011;30134;47.866;-4.222;2023-08-30T00:47:03;1.90;;;1.00;;
44428;SDS011;30134;47.866;-4.222;2023-08-30T00:49:29;3.97;;;1.20;;
44428;SDS011;30134;47.866;-4.222;2023-08-30T00:51:57;1.98;;;1.00;;
44428;SDS011;30134;47.866;-4.222;2023-08-30T00:54:31;2.50;;;1.30;;
44428;SDS011;30134;47.866;-4.222;2023-08-30T00:56:57;1.85;;;1.13;;
44428;SDS011;30134;47.866;-4.222;2023-08-30T00:59:25;4.45;;;1.20;;
44428;SDS011;30134;47.866;-4.222;2023-08-30T01:01:52;2.10;;;1.23;;
44428;SDS011;30134;47.866;-4.222;2023-08-30T01:09:48;3.15;;;1.13;;
44428;SDS011;30134;47.866;-4.222;2023-08-30T01:12:20;2.55;;;1.05;;
44428;SDS011;30134;47.866;-4.222;2023-08-30T01:17:34;3.17;;;1.35;;
44428;SDS011;30134;47.866;-4.222;2023-08-30T01:20:06;4.05;;;1.30;;
44428;SDS011;30134;47.866;-4.222;2023-08-30T01:23:06;1.52;;;0.90;;
44428;SDS011;30134;47.866;-4.222;2023-08-30T01:28:38;3.92;;;1.65;;
44428;SDS011;30134;47.866;-4.222;2023-08-30T01:31:06;2.35;;;1.10;;
44428;SDS011;30134;47.866;-4.222;2023-08-30T01:33:38;2.45;;;1.25;;
44428;SDS011;30134;47.866;-4.222;2023-08-30T01:38:49;2.28;;;1.25;;
44428;SDS011;30134;47.866;-4.222;2023-08-30T01:41:17;2.53;;;1.00;;
44428;SDS011;30134;47.866;-4.222;2023-08-30T01:43:43;2.58;;;1.15;;
44428;SDS011;30134;47.866;-4.222;2023-08-30T01:49:13;2.75;;;1.27;;
44428;SDS011;30134;47.866;-4.222;2023-08-30T01:51:40;2.63;;;1.17;;
44428;SDS011;30134;47.866;-4.222;2023-08-30T01:54:06;2.50;;;1.45;;
44428;SDS011;30134;47.866;-4.222;2023-08-30T01:56:56;2.80;;;1.33;;
44428;SDS011;30134;47.866;-4.222;2023-08-30T01:59:24;4.07;;;1.23;;
44428;SDS011;30134;47.866;-4.222;2023-08-30T02:01:51;5.85;;;1.52;;
44428;SDS011;30134;47.866;-4.222;2023-08-30T02:04:35;4.15;;;1.48;;
44428;SDS011;30134;47.866;-4.222;2023-08-30T02:07:02;2.75;;;1.33;;
44428;SDS011;30134;47.866;-4.222;2023-08-30T02:15:16;3.40;;;1.17;;
44428;SDS011;30134;47.866;-4.222;2023-08-30T02:18:01;6.18;;;1.40;;
44428;SDS011;30134;47.866;-4.222;2023-08-30T02:20:38;5.10;;;1.85;;
44428;SDS011;30134;47.866;-4.222;2023-08-30T02:23:11;5.28;;;2.67;;
44428;SDS011;30134;47.866;-4.222;2023-08-30T02:25:38;198.85;;;131.10;;
44428;SDS011;30134;47.866;-4.222;2023-08-30T02:28:04;160.98;;;112.63;;
44428;SDS011;30134;47.866;-4.222;2023-08-30T02:30:50;128.95;;;91.05;;
44428;SDS011;30134;47.866;-4.222;2023-08-30T02:33:18;101.38;;;73.40;;
44428;SDS011;30134;47.866;-4.222;2023-08-30T02:36:02;96.63;;;68.05;;
44428;SDS011;30134;47.866;-4.222;2023-08-30T02:38:29;94.50;;;64.68;;
44428;SDS011;30134;47.866;-4.222;2023-08-30T02:40:55;86.03;;;61.15;;
44428;SDS011;30134;47.866;-4.222;2023-08-30T02:43:21;82.50;;;58.88;;
44428;SDS011;30134;47.866;-4.222;2023-08-30T02:45:47;80.05;;;55.05;;
44428;SDS011;30134;47.866;-4.222;2023-08-30T02:48:32;74.30;;;52.08;;
44428;SDS011;30134;47.866;-4.222;2023-08-30T02:51:00;68.82;;;49.28;;
44428;SDS011;30134;47.866;-4.222;2023-08-30T02:53:25;68.10;;;48.83;;
44428;SDS011;30134;47.866;-4.222;2023-08-30T02:55:51;63.75;;;45.70;;
44428;SDS011;30134;47.866;-4.222;2023-08-30T02:58:20;58.00;;;42.28;;
44428;SDS011;30134;47.866;-4.222;2023-08-30T03:00:47;54.45;;;39.97;;
44428;SDS011;30134;47.866;-4.222;2023-08-30T03:03:13;52.55;;;37.33;;
44428;SDS011;30134;47.866;-4.222;2023-08-30T03:05:39;49.15;;;35.10;;
44428;SDS011;30134;47.866;-4.222;2023-08-30T03:08:24;47.80;;;33.65;;
44428;SDS011;30134;47.866;-4.222;2023-08-30T03:10:50;45.58;;;32.58;;
44428;SDS011;30134;47.866;-4.222;2023-08-30T03:13:16;42.78;;;30.48;;
44428;SDS011;30134;47.866;-4.222;2023-08-30T03:16:02;40.17;;;28.95;;
44428;SDS011;30134;47.866;-4.222;2023-08-30T03:18:38;36.72;;;26.30;;
44428;SDS011;30134;47.866;-4.222;2023-08-30T03:21:05;36.03;;;24.52;;
44428;SDS011;30134;47.866;-4.222;2023-08-30T03:23:31;35.17;;;24.80;;
44428;SDS011;30134;47.866;-4.222;2023-08-30T03:26:16;30.30;;;21.80;;
44428;SDS011;30134;47.866;-4.222;2023-08-30T03:28:42;27.85;;;19.55;;
44428;SDS011;30134;47.866;-4.222;2023-08-30T03:31:12;28.40;;;19.67;;
44428;SDS011;30134;47.866;-4.222;2023-08-30T03:33:43;25.55;;;19.50;;
44428;SDS011;30134;47.866;-4.222;2023-08-30T03:36:12;21.35;;;16.17;;
44428;SDS011;30134;47.866;-4.222;2023-08-30T03:41:25;24.17;;;16.10;;
44428;SDS011;30134;47.866;-4.222;2023-08-30T03:43:51;22.52;;;14.73;;
44428;SDS011;30134;47.866;-4.222;2023-08-30T03:46:17;18.98;;;13.73;;
44428;SDS011;30134;47.866;-4.222;2023-08-30T03:48:43;18.55;;;13.57;;
44428;SDS011;30134;47.866;-4.222;2023-08-30T03:51:09;17.70;;;13.43;;
44428;SDS011;30134;47.866;-4.222;2023-08-30T03:53:35;16.67;;;12.07;;
44428;SDS011;30134;47.866;-4.222;2023-08-30T03:56:01;17.27;;;11.80;;
44428;SDS011;30134;47.866;-4.222;2023-08-30T03:58:29;16.30;;;10.93;;
44428;SDS011;30134;47.866;-4.222;2023-08-30T04:00:56;16.40;;;10.80;;
44428;SDS011;30134;47.866;-4.222;2023-08-30T04:03:22;15.32;;;10.32;;
44428;SDS011;30134;47.866;-4.222;2023-08-30T04:06:07;14.52;;;10.10;;
44428;SDS011;30134;47.866;-4.222;2023-08-30T04:08:33;13.60;;;8.45;;
44428;SDS011;30134;47.866;-4.222;2023-08-30T04:11:17;12.85;;;8.35;;
44428;SDS011;30134;47.866;-4.222;2023-08-30T04:16:28;11.45;;;7.60;;
44428;SDS011;30134;47.866;-4.222;2023-08-30T04:18:54;11.57;;;7.15;;
44428;SDS011;30134;47.866;-4.222;2023-08-30T04:21:38;9.88;;;6.68;;
44428;SDS011;30134;47.866;-4.222;2023-08-30T04:26:49;8.43;;;5.90;;
44428;SDS011;30134;47.866;-4.222;2023-08-30T04:29:18;9.63;;;6.30;;
44428;SDS011;30134;47.866;-4.222;2023-08-30T04:31:43;7.30;;;5.70;;
44428;SDS011;30134;47.866;-4.222;2023-08-30T04:34:09;7.75;;;5.63;;
44428;SDS011;30134;47.866;-4.222;2023-08-30T04:36:35;10.75;;;6.20;;
44428;SDS011;30134;47.866;-4.222;2023-08-30T04:41:46;10.60;;;5.25;;
44428;SDS011;30134;47.866;-4.222;2023-08-30T04:44:12;8.75;;;5.25;;
44428;SDS011;30134;47.866;-4.222;2023-08-30T04:46:38;8.43;;;5.07;;
44428;SDS011;30134;47.866;-4.222;2023-08-30T04:49:04;9.80;;;5.03;;
44428;SDS011;30134;47.866;-4.222;2023-08-30T04:51:30;7.88;;;4.35;;
44428;SDS011;30134;47.866;-4.222;2023-08-30T04:54:02;8.02;;;4.40;;
44428;SDS011;30134;47.866;-4.222;2023-08-30T04:56:28;7.07;;;4.35;;
44428;SDS011;30134;47.866;-4.222;2023-08-30T04:58:54;6.82;;;4.18;;
44428;SDS011;30134;47.866;-4.222;2023-08-30T05:01:40;6.80;;;4.15;;
44428;SDS011;30134;47.866;-4.222;2023-08-30T05:04:09;8.85;;;4.13;;
44428;SDS011;30134;47.866;-4.222;2023-08-30T05:06:36;7.15;;;3.60;;
44428;SDS011;30134;47.866;-4.222;2023-08-30T05:09:02;5.55;;;3.20;;
44428;SDS011;30134;47.866;-4.222;2023-08-30T05:11:28;5.15;;;3.22;;
44428;SDS011;30134;47.866;-4.222;2023-08-30T05:13:55;5.10;;;3.25;;
44428;SDS011;30134;47.866;-4.222;2023-08-30T05:16:21;5.57;;;2.67;;
44428;SDS011;30134;47.866;-4.222;2023-08-30T05:18:47;5.15;;;2.90;;
44428;SDS011;30134;47.866;-4.222;2023-08-30T05:21:16;4.50;;;2.78;;
44428;SDS011;30134;47.866;-4.222;2023-08-30T05:23:42;3.53;;;2.50;;
44428;SDS011;30134;47.866;-4.222;2023-08-30T05:26:10;3.97;;;2.50;;
44428;SDS011;30134;47.866;-4.222;2023-08-30T05:28:39;4.95;;;2.85;;
44428;SDS011;30134;47.866;-4.222;2023-08-30T05:31:23;4.05;;;2.38;;
44428;SDS011;30134;47.866;-4.222;2023-08-30T05:33:49;2.95;;;2.22;;
44428;SDS011;30134;47.866;-4.222;2023-08-30T05:39:00;3.17;;;1.98;;
44428;SDS011;30134;47.866;-4.222;2023-08-30T05:41:26;4.93;;;2.70;;
44428;SDS011;30134;47.866;-4.222;2023-08-30T05:43:53;4.75;;;2.25;;
44428;SDS011;30134;47.866;-4.222;2023-08-30T05:46:19;2.63;;;1.92;;
44428;SDS011;30134;47.866;-4.222;2023-08-30T05:48:45;3.10;;;2.15;;
44428;SDS011;30134;47.866;-4.222;2023-08-30T05:51:30;2.58;;;1.73;;
44428;SDS011;30134;47.866;-4.222;2023-08-30T05:53:56;2.75;;;2.13;;
44428;SDS011;30134;47.866;-4.222;2023-08-30T05:56:22;3.53;;;2.00;;
44428;SDS011;30134;47.866;-4.222;2023-08-30T05:59:06;3.85;;;2.00;;
44428;SDS011;30134;47.866;-4.222;2023-08-30T06:01:32;2.05;;;1.63;;
44428;SDS011;30134;47.866;-4.222;2023-08-30T06:04:17;3.40;;;1.70;;
44428;SDS011;30134;47.866;-4.222;2023-08-30T06:06:42;2.70;;;1.67;;
44428;SDS011;30134;47.866;-4.222;2023-08-30T06:12:30;2.65;;;1.67;;
44428;SDS011;30134;47.866;-4.222;2023-08-30T06:17:41;2.72;;;1.70;;
44428;SDS011;30134;47.866;-4.222;2023-08-30T06:20:07;2.33;;;1.67;;
44428;SDS011;30134;47.866;-4.222;2023-08-30T06:22:51;2.40;;;1.40;;
44428;SDS011;30134;47.866;-4.222;2023-08-30T06:28:02;2.70;;;1.70;;
44428;SDS011;30134;47.866;-4.222;2023-08-30T06:30:47;3.47;;;1.92;;
44428;SDS011;30134;47.866;-4.222;2023-08-30T06:33:13;3.08;;;1.83;;
44428;SDS011;30134;47.866;-4.222;2023-08-30T06:35:39;2.72;;;1.50;;
44428;SDS011;30134;47.866;-4.222;2023-08-30T06:43:36;2.50;;;1.50;;
44428;SDS011;30134;47.866;-4.222;2023-08-30T06:46:03;2.88;;;1.42;;
44428;SDS011;30134;47.866;-4.222;2023-08-30T06:48:29;2.22;;;1.40;;
44428;SDS011;30134;47.866;-4.222;2023-08-30T06:54:16;2.60;;;1.45;;
44428;SDS011;30134;47.866;-4.222;2023-08-30T06:56:47;2.50;;;1.40;;
44428;SDS011;30134;47.866;-4.222;2023-08-30T06:59:41;2.03;;;1.27;;
44428;SDS011;30134;47.866;-4.222;2023-08-30T07:02:07;3.33;;;1.30;;
44428;SDS011;30134;47.866;-4.222;2023-08-30T07:04:33;3.25;;;1.50;;
44428;SDS011;30134;47.866;-4.222;2023-08-30T07:07:18;2.45;;;1.60;;
44428;SDS011;30134;47.866;-4.222;2023-08-30T07:09:44;1.92;;;1.50;;
44428;SDS011;30134;47.866;-4.222;2023-08-30T07:12:28;2.90;;;1.60;;
44428;SDS011;30134;47.866;-4.222;2023-08-30T07:14:55;2.00;;;1.30;;
44428;SDS011;30134;47.866;-4.222;2023-08-30T07:17:21;4.75;;;1.42;;
44428;SDS011;30134;47.866;-4.222;2023-08-30T07:19:47;4.22;;;1.52;;
44428;SDS011;30134;47.866;-4.222;2023-08-30T07:22:14;2.70;;;1.40;;
44428;SDS011;30134;47.866;-4.222;2023-08-30T07:30:13;2.72;;;1.40;;
44428;SDS011;30134;47.866;-4.222;2023-08-30T07:32:39;3.20;;;1.50;;
44428;SDS011;30134;47.866;-4.222;2023-08-30T07:35:24;9.57;;;6.38;;
44428;SDS011;30134;47.866;-4.222;2023-08-30T07:37:50;23.35;;;14.13;;
44428;SDS011;30134;47.866;-4.222;2023-08-30T07:40:16;31.48;;;20.45;;
44428;SDS011;30134;47.866;-4.222;2023-08-30T07:43:01;29.95;;;19.30;;
44428;SDS011;30134;47.866;-4.222;2023-08-30T07:45:46;39.78;;;25.75;;
44428;SDS011;30134;47.866;-4.222;2023-08-30T07:48:15;30.33;;;21.55;;
44428;SDS011;30134;47.866;-4.222;2023-08-30T07:50:41;28.92;;;19.08;;
44428;SDS011;30134;47.866;-4.222;2023-08-30T07:53:07;28.15;;;17.83;;
44428;SDS011;30134;47.866;-4.222;2023-08-30T07:55:35;26.40;;;17.17;;
44428;SDS011;30134;47.866;-4.222;2023-08-30T07:58:02;20.25;;;13.48;;
44428;SDS011;30134;47.866;-4.222;2023-08-30T08:00:50;26.58;;;13.02;;
44428;SDS011;30134;47.866;-4.222;2023-08-30T08:03:17;19.60;;;12.27;;
44428;SDS011;30134;47.866;-4.222;2023-08-30T08:05:47;19.25;;;11.07;;
44428;SDS011;30134;47.866;-4.222;2023-08-30T08:08:13;16.17;;;10.40;;
44428;SDS011;30134;47.866;-4.222;2023-08-30T08:10:39;18.60;;;10.13;;
44428;SDS011;30134;47.866;-4.222;2023-08-30T08:13:07;15.60;;;9.57;;
44428;SDS011;30134;47.866;-4.222;2023-08-30T08:15:52;14.88;;;8.73;;
44428;SDS011;30134;47.866;-4.222;2023-08-30T08:18:36;16.83;;;8.70;;
44428;SDS011;30134;47.866;-4.222;2023-08-30T08:21:02;13.82;;;8.65;;
44428;SDS011;30134;47.866;-4.222;2023-08-30T08:23:29;13.77;;;7.35;;
44428;SDS011;30134;47.866;-4.222;2023-08-30T08:29:16;15.80;;;7.00;;
44428;SDS011;30134;47.866;-4.222;2023-08-30T08:31:43;10.40;;;6.15;;
44428;SDS011;30134;47.866;-4.222;2023-08-30T08:34:10;11.90;;;6.30;;
44428;SDS011;30134;47.866;-4.222;2023-08-30T08:36:41;13.40;;;6.70;;
44428;SDS011;30134;47.866;-4.222;2023-08-30T08:39:08;10.40;;;6.22;;
44428;SDS011;30134;47.866;-4.222;2023-08-30T08:41:35;12.60;;;5.72;;
44428;SDS011;30134;47.866;-4.222;2023-08-30T08:44:10;11.32;;;5.22;;
44428;SDS011;30134;47.866;-4.222;2023-08-30T08:46:38;7.80;;;4.97;;
44428;SDS011;30134;47.866;-4.222;2023-08-30T08:49:11;11.32;;;5.53;;
44428;SDS011;30134;47.866;-4.222;2023-08-30T08:51:39;9.23;;;4.60;;
44428;SDS011;30134;47.866;-4.222;2023-08-30T08:54:07;8.75;;;4.43;;
44428;SDS011;30134;47.866;-4.222;2023-08-30T08:56:34;10.82;;;4.93;;
44428;SDS011;30134;47.866;-4.222;2023-08-30T08:59:01;11.65;;;4.47;;
44428;SDS011;30134;47.866;-4.222;2023-08-30T09:01:28;11.77;;;4.30;;
44428;SDS011;30134;47.866;-4.222;2023-08-30T09:03:54;9.52;;;4.15;;
44428;SDS011;30134;47.866;-4.222;2023-08-30T09:06:23;9.75;;;4.07;;
44428;SDS011;30134;47.866;-4.222;2023-08-30T09:11:53;9.75;;;4.03;;
44428;SDS011;30134;47.866;-4.222;2023-08-30T09:14:37;8.30;;;4.35;;
44428;SDS011;30134;47.866;-4.222;2023-08-30T09:17:03;12.00;;;6.15;;
44428;SDS011;30134;47.866;-4.222;2023-08-30T09:19:48;22.75;;;12.13;;
44428;SDS011;30134;47.866;-4.222;2023-08-30T09:22:14;25.27;;;13.25;;
44428;SDS011;30134;47.866;-4.222;2023-08-30T09:24:40;18.75;;;10.85;;
44428;SDS011;30134;47.866;-4.222;2023-08-30T09:27:31;23.38;;;10.27;;
44428;SDS011;30134;47.866;-4.222;2023-08-30T09:30:00;17.42;;;10.00;;
44428;SDS011;30134;47.866;-4.222;2023-08-30T09:32:28;20.10;;;10.55;;
44428;SDS011;30134;47.866;-4.222;2023-08-30T09:34:54;19.90;;;9.52;;
44428;SDS011;30134;47.866;-4.222;2023-08-30T09:37:58;14.32;;;8.85;;
44428;SDS011;30134;47.866;-4.222;2023-08-30T09:40:24;18.45;;;8.65;;
44428;SDS011;30134;47.866;-4.222;2023-08-30T09:42:50;16.35;;;8.75;;
44428;SDS011;30134;47.866;-4.222;2023-08-30T09:48:22;15.93;;;7.38;;
44428;SDS011;30134;47.866;-4.222;2023-08-30T09:50:53;15.35;;;7.03;;
44428;SDS011;30134;47.866;-4.222;2023-08-30T09:53:20;21.65;;;7.57;;
44428;SDS011;30134;47.866;-4.222;2023-08-30T09:55:49;14.00;;;6.53;;
44428;SDS011;30134;47.866;-4.222;2023-08-30T09:58:23;12.20;;;5.77;;
44428;SDS011;30134;47.866;-4.222;2023-08-30T10:01:08;10.90;;;5.53;;
44428;SDS011;30134;47.866;-4.222;2023-08-30T10:03:35;15.32;;;6.70;;
44428;SDS011;30134;47.866;-4.222;2023-08-30T10:06:01;13.57;;;5.47;;
44428;SDS011;30134;47.866;-4.222;2023-08-30T10:08:47;8.25;;;4.88;;
44428;SDS011;30134;47.866;-4.222;2023-08-30T10:11:17;10.15;;;5.28;;
44428;SDS011;30134;47.866;-4.222;2023-08-30T10:13:47;11.45;;;5.68;;
44428;SDS011;30134;47.866;-4.222;2023-08-30T10:16:16;9.77;;;4.85;;
44428;SDS011;30134;47.866;-4.222;2023-08-30T10:21:24;9.40;;;4.50;;
44428;SDS011;30134;47.866;-4.222;2023-08-30T10:23:52;8.52;;;4.10;;
44428;SDS011;30134;47.866;-4.222;2023-08-30T10:26:40;10.25;;;4.35;;
44428;SDS011;30134;47.866;-4.222;2023-08-30T10:29:28;9.63;;;4.28;;
44428;SDS011;30134;47.866;-4.222;2023-08-30T10:32:01;11.30;;;4.03;;
44428;SDS011;30134;47.866;-4.222;2023-08-30T10:34:49;9.67;;;4.53;;
44428;SDS011;30134;47.866;-4.222;2023-08-30T10:37:21;10.32;;;4.43;;
44428;SDS011;30134;47.866;-4.222;2023-08-30T10:39:49;8.93;;;3.65;;
44428;SDS011;30134;47.866;-4.222;2023-08-30T10:42:15;7.72;;;3.60;;
44428;SDS011;30134;47.866;-4.222;2023-08-30T10:44:48;8.63;;;3.88;;
44428;SDS011;30134;47.866;-4.222;2023-08-30T10:47:23;8.80;;;4.10;;
44428;SDS011;30134;47.866;-4.222;2023-08-30T10:49:58;8.77;;;3.38;;
44428;SDS011;30134;47.866;-4.222;2023-08-30T10:52:43;9.40;;;3.53;;
44428;SDS011;30134;47.866;-4.222;2023-08-30T10:55:21;8.57;;;3.28;;
44428;SDS011;30134;47.866;-4.222;2023-08-30T10:58:06;6.57;;;3.28;;
44428;SDS011;30134;47.866;-4.222;2023-08-30T11:00:38;10.27;;;3.50;;
44428;SDS011;30134;47.866;-4.222;2023-08-30T11:03:10;8.73;;;3.40;;
44428;SDS011;30134;47.866;-4.222;2023-08-30T11:05:54;9.10;;;3.40;;
44428;SDS011;30134;47.866;-4.222;2023-08-30T11:08:21;8.05;;;3.47;;
44428;SDS011;30134;47.866;-4.222;2023-08-30T11:10:48;8.45;;;3.58;;
44428;SDS011;30134;47.866;-4.222;2023-08-30T11:13:24;9.15;;;2.97;;
44428;SDS011;30134;47.866;-4.222;2023-08-30T11:16:11;8.02;;;2.90;;
44428;SDS011;30134;47.866;-4.222;2023-08-30T11:18:55;11.50;;;3.70;;
44428;SDS011;30134;47.866;-4.222;2023-08-30T11:21:21;9.60;;;3.20;;
44428;SDS011;30134;47.866;-4.222;2023-08-30T11:23:47;8.23;;;3.17;;
44428;SDS011;30134;47.866;-4.222;2023-08-30T11:26:14;7.55;;;2.95;;
44428;SDS011;30134;47.866;-4.222;2023-08-30T11:28:42;8.25;;;2.85;;
44428;SDS011;30134;47.866;-4.222;2023-08-30T11:31:23;17.50;;;10.25;;
44428;SDS011;30134;47.866;-4.222;2023-08-30T11:33:54;10.75;;;6.70;;
44428;SDS011;30134;47.866;-4.222;2023-08-30T11:36:23;12.20;;;5.55;;
44428;SDS011;30134;47.866;-4.222;2023-08-30T11:41:37;11.43;;;5.47;;
44428;SDS011;30134;47.866;-4.222;2023-08-30T11:44:04;8.50;;;4.72;;
44428;SDS011;30134;47.866;-4.222;2023-08-30T11:46:30;14.25;;;6.03;;
44428;SDS011;30134;47.866;-4.222;2023-08-30T11:48:57;9.98;;;5.25;;
44428;SDS011;30134;47.866;-4.222;2023-08-30T11:51:42;10.45;;;5.00;;
44428;SDS011;30134;47.866;-4.222;2023-08-30T11:54:08;8.18;;;4.57;;
44428;SDS011;30134;47.866;-4.222;2023-08-30T11:56:35;7.05;;;4.28;;
44428;SDS011;30134;47.866;-4.222;2023-08-30T11:59:01;9.57;;;4.70;;
44428;SDS011;30134;47.866;-4.222;2023-08-30T12:01:29;8.98;;;4.03;;
44428;SDS011;30134;47.866;-4.222;2023-08-30T12:03:55;9.27;;;4.32;;
44428;SDS011;30134;47.866;-4.222;2023-08-30T12:06:22;9.15;;;3.95;;
44428;SDS011;30134;47.866;-4.222;2023-08-30T12:08:56;7.43;;;3.78;;
44428;SDS011;30134;47.866;-4.222;2023-08-30T12:11:23;7.35;;;3.80;;
44428;SDS011;30134;47.866;-4.222;2023-08-30T12:13:49;10.38;;;3.88;;
44428;SDS011;30134;47.866;-4.222;2023-08-30T12:16:18;9.40;;;3.53;;
44428;SDS011;30134;47.866;-4.222;2023-08-30T12:18:45;7.72;;;3.47;;
44428;SDS011;30134;47.866;-4.222;2023-08-30T12:21:12;9.50;;;3.58;;
44428;SDS011;30134;47.866;-4.222;2023-08-30T12:23:40;7.15;;;3.30;;
44428;SDS011;30134;47.866;-4.222;2023-08-30T12:26:31;7.60;;;3.80;;
44428;SDS011;30134;47.866;-4.222;2023-08-30T12:32:06;7.72;;;3.17;;
44428;SDS011;30134;47.866;-4.222;2023-08-30T12:34:51;8.13;;;3.20;;
44428;SDS011;30134;47.866;-4.222;2023-08-30T12:37:17;11.30;;;4.93;;
44428;SDS011;30134;47.866;-4.222;2023-08-30T12:39:43;7.88;;;3.17;;
44428;SDS011;30134;47.866;-4.222;2023-08-30T12:42:27;6.93;;;3.20;;
44428;SDS011;30134;47.866;-4.222;2023-08-30T12:44:53;4.97;;;2.75;;
44428;SDS011;30134;47.866;-4.222;2023-08-30T12:47:20;7.03;;;2.95;;
44428;SDS011;30134;47.866;-4.222;2023-08-30T12:49:46;10.02;;;3.25;;
44428;SDS011;30134;47.866;-4.222;2023-08-30T12:52:31;6.35;;;2.72;;
44428;SDS011;30134;47.866;-4.222;2023-08-30T12:55:15;7.70;;;2.70;;
44428;SDS011;30134;47.866;-4.222;2023-08-30T12:57:42;7.20;;;3.50;;
44428;SDS011;30134;47.866;-4.222;2023-08-30T13:00:11;6.93;;;2.65;;
44428;SDS011;30134;47.866;-4.222;2023-08-30T13:02:56;7.38;;;3.33;;
44428;SDS011;30134;47.866;-4.222;2023-08-30T13:05:41;7.35;;;3.00;;
44428;SDS011;30134;47.866;-4.222;2023-08-30T13:08:26;6.82;;;2.78;;
44428;SDS011;30134;47.866;-4.222;2023-08-30T13:10:52;6.32;;;3.10;;
44428;SDS011;30134;47.866;-4.222;2023-08-30T13:13:19;5.75;;;2.60;;
44428;SDS011;30134;47.866;-4.222;2023-08-30T13:16:03;11.05;;;3.38;;
44428;SDS011;30134;47.866;-4.222;2023-08-30T13:18:48;8.15;;;2.80;;
44428;SDS011;30134;47.866;-4.222;2023-08-30T13:21:13;11.85;;;3.08;;
44428;SDS011;30134;47.866;-4.222;2023-08-30T13:26:28;7.53;;;3.03;;
44428;SDS011;30134;47.866;-4.222;2023-08-30T13:31:40;7.15;;;2.60;;
44428;SDS011;30134;47.866;-4.222;2023-08-30T13:34:06;9.50;;;2.92;;
44428;SDS011;30134;47.866;-4.222;2023-08-30T13:37:09;8.27;;;2.75;;
44428;SDS011;30134;47.866;-4.222;2023-08-30T13:40:12;8.63;;;2.58;;
44428;SDS011;30134;47.866;-4.222;2023-08-30T13:45:23;9.27;;;3.10;;
44428;SDS011;30134;47.866;-4.222;2023-08-30T13:47:49;4.70;;;2.30;;
44428;SDS011;30134;47.866;-4.222;2023-08-30T13:50:18;7.95;;;2.70;;
44428;SDS011;30134;47.866;-4.222;2023-08-30T13:52:44;7.00;;;2.78;;
44428;SDS011;30134;47.866;-4.222;2023-08-30T13:55:10;7.15;;;2.80;;
44428;SDS011;30134;47.866;-4.222;2023-08-30T13:57:36;6.35;;;2.53;;
44428;SDS011;30134;47.866;-4.222;2023-08-30T14:00:02;6.50;;;2.58;;
44428;SDS011;30134;47.866;-4.222;2023-08-30T14:02:34;5.88;;;2.45;;
44428;SDS011;30134;47.866;-4.222;2023-08-30T14:05:01;6.43;;;2.95;;
44428;SDS011;30134;47.866;-4.222;2023-08-30T14:07:28;6.65;;;2.40;;
44428;SDS011;30134;47.866;-4.222;2023-08-30T14:09:54;6.15;;;2.40;;
44428;SDS011;30134;47.866;-4.222;2023-08-30T14:12:20;8.27;;;2.70;;
44428;SDS011;30134;47.866;-4.222;2023-08-30T14:14:46;9.35;;;2.65;;
44428;SDS011;30134;47.866;-4.222;2023-08-30T14:17:12;7.22;;;2.53;;
44428;SDS011;30134;47.866;-4.222;2023-08-30T14:19:38;7.65;;;2.83;;
44428;SDS011;30134;47.866;-4.222;2023-08-30T14:22:04;8.15;;;2.78;;
44428;SDS011;30134;47.866;-4.222;2023-08-30T14:24:49;6.93;;;2.63;;
44428;SDS011;30134;47.866;-4.222;2023-08-30T14:27:14;10.43;;;2.60;;
44428;SDS011;30134;47.866;-4.222;2023-08-30T14:29:41;8.60;;;2.65;;
44428;SDS011;30134;47.866;-4.222;2023-08-30T14:32:07;7.28;;;2.47;;
44428;SDS011;30134;47.866;-4.222;2023-08-30T14:34:33;8.15;;;2.75;;
44428;SDS011;30134;47.866;-4.222;2023-08-30T14:39:43;5.68;;;2.55;;
44428;SDS011;30134;47.866;-4.222;2023-08-30T14:42:29;7.20;;;2.35;;
44428;SDS011;30134;47.866;-4.222;2023-08-30T14:45:14;10.00;;;3.00;;
44428;SDS011;30134;47.866;-4.222;2023-08-30T14:47:40;5.43;;;2.08;;
44428;SDS011;30134;47.866;-4.222;2023-08-30T14:52:51;9.73;;;2.78;;
44428;SDS011;30134;47.866;-4.222;2023-08-30T14:55:35;6.90;;;2.22;;
44428;SDS011;30134;47.866;-4.222;2023-08-30T14:58:01;6.20;;;2.33;;
44428;SDS011;30134;47.866;-4.222;2023-08-30T15:00:28;6.30;;;2.40;;
44428;SDS011;30134;47.866;-4.222;2023-08-30T15:03:31;5.80;;;2.33;;
44428;SDS011;30134;47.866;-4.222;2023-08-30T15:05:58;6.80;;;2.88;;
44428;SDS011;30134;47.866;-4.222;2023-08-30T15:08:42;8.50;;;3.40;;
44428;SDS011;30134;47.866;-4.222;2023-08-30T15:11:08;6.93;;;2.25;;
44428;SDS011;30134;47.866;-4.222;2023-08-30T15:13:34;7.30;;;2.50;;
44428;SDS011;30134;47.866;-4.222;2023-08-30T15:16:19;6.78;;;2.50;;
44428;SDS011;30134;47.866;-4.222;2023-08-30T15:18:45;5.88;;;2.53;;
44428;SDS011;30134;47.866;-4.222;2023-08-30T15:21:10;7.43;;;2.47;;
44428;SDS011;30134;47.866;-4.222;2023-08-30T15:26:41;7.35;;;2.50;;
44428;SDS011;30134;47.866;-4.222;2023-08-30T15:29:08;6.55;;;2.38;;
44428;SDS011;30134;47.866;-4.222;2023-08-30T15:34:20;6.43;;;2.80;;
44428;SDS011;30134;47.866;-4.222;2023-08-30T15:36:46;8.35;;;2.50;;
44428;SDS011;30134;47.866;-4.222;2023-08-30T15:39:30;5.57;;;2.22;;
44428;SDS011;30134;47.866;-4.222;2023-08-30T15:41:56;10.38;;;3.05;;
44428;SDS011;30134;47.866;-4.222;2023-08-30T15:44:25;5.25;;;2.17;;
44428;SDS011;30134;47.866;-4.222;2023-08-30T15:46:51;7.47;;;2.78;;
44428;SDS011;30134;47.866;-4.222;2023-08-30T15:49:17;8.35;;;2.85;;
44428;SDS011;30134;47.866;-4.222;2023-08-30T15:51:43;7.03;;;2.72;;
44428;SDS011;30134;47.866;-4.222;2023-08-30T15:54:09;6.80;;;2.60;;
44428;SDS011;30134;47.866;-4.222;2023-08-30T15:57:31;9.02;;;2.63;;
44428;SDS011;30134;47.866;-4.222;2023-08-30T15:59:57;6.55;;;2.67;;
44428;SDS011;30134;47.866;-4.222;2023-08-30T16:02:23;9.38;;;2.60;;
44428;SDS011;30134;47.866;-4.222;2023-08-30T16:04:49;7.07;;;2.63;;
44428;SDS011;30134;47.866;-4.222;2023-08-30T16:07:34;7.90;;;2.53;;
44428;SDS011;30134;47.866;-4.222;2023-08-30T16:10:00;6.20;;;2.17;;
44428;SDS011;30134;47.866;-4.222;2023-08-30T16:12:26;6.45;;;2.10;;
44428;SDS011;30134;47.866;-4.222;2023-08-30T16:15:10;6.05;;;2.33;;
44428;SDS011;30134;47.866;-4.222;2023-08-30T16:17:37;7.13;;;2.45;;
44428;SDS011;30134;47.866;-4.222;2023-08-30T16:26:09;7.75;;;2.70;;
44428;SDS011;30134;47.866;-4.222;2023-08-30T16:28:35;7.15;;;2.70;;
44428;SDS011;30134;47.866;-4.222;2023-08-30T16:31:04;8.00;;;2.92;;
44428;SDS011;30134;47.866;-4.222;2023-08-30T16:33:32;10.57;;;2.55;;
44428;SDS011;30134;47.866;-4.222;2023-08-30T16:35:59;7.68;;;2.40;;
44428;SDS011;30134;47.866;-4.222;2023-08-30T16:38:25;6.85;;;2.58;;
44428;SDS011;30134;47.866;-4.222;2023-08-30T16:40:51;7.53;;;2.67;;